Ely Airport Yelland Field
KELY : rendu visible

Aérodrome :











RETROUVEZ-NOUS SUR...

 
LOGIN :

S'inscrire | Disclaimer

   EN    FR    IT 

 









Légende :    VFR   VFR Marginal   IFR   IFR Intensif   IFR Très Intensif
Visi : 
Plafond : 
>= 8 km
>= 3000ft
5 à 8 km
1000 à 3000 ft
1500m à 5 km
500 à 1000 ft
800 à 1500m
200 à 500 ft
< 800m
< 200 ft
Symboles :   Orages  Brouillard  Fortes neiges  Fortes précipitations  Vent > 20 kt






- Altitude de l'aérodrome : 6259 ft


KELY - Ely Yelland Field

DERNIER METAR :
  • 272153Z AUTO 33011KT 10SM CLR 06/M05 A3026 RMK AO2 SLP234 T00561050

METARs EXPIRÉS :
  • 272053Z AUTO 36010KT 10SM FEW041 06/M04 A3027 RMK AO2 SLP237 T00561039 58008
  • 271953Z AUTO 05007KT 10SM FEW040 05/M03 A3028 RMK AO2 SLP241 T00501033

TAF KELY
Valide du 27 à 18h jusqu'au 28 à 18h UTC


271720Z 2718/2818 31006KT P6SM FEW060 SCT200
FM281700 20006KT P6SM BKN050



MET'MAP, la Météo Aéronautique d'un coup d'oeil ! - Copyright ORBIFLY Décembre 2007 - Disclaimer

ORBIFLY MET'MAP TEAM :

Programmation & Développement : Alexandra Zaïnal
Sur une idée originale de : Baudouin d'Aumeries
Assistance à la programmation : Marc-Olivier Méhu
Soutien technique & logistique : Manuel Goepfert

Contact : metmap@orbifly.com




SOURCES & CREDITS :

   NOAA       Earth
Advisory